createdAt,value
2018-04-06T00:00:20.319Z,0.00
2018-04-06T00:01:20.302Z,0.00
2018-04-06T00:02:20.286Z,0.00
2018-04-06T00:03:20.252Z,0.00
2018-04-06T00:04:20.240Z,0.00
2018-04-06T00:05:20.212Z,0.00
2018-04-06T00:06:20.190Z,0.00
2018-04-06T00:07:20.169Z,0.00
2018-04-06T00:08:20.151Z,0.00
2018-04-06T00:09:20.129Z,0.00
2018-04-06T00:10:20.107Z,0.00
2018-04-06T00:11:20.094Z,0.00
2018-04-06T00:12:20.064Z,0.00
2018-04-06T00:13:20.046Z,0.00
2018-04-06T00:14:20.024Z,0.00
2018-04-06T00:15:20.003Z,0.00
2018-04-06T00:16:19.981Z,0.00
2018-04-06T00:17:19.960Z,0.00
2018-04-06T00:18:19.941Z,0.00
2018-04-06T00:19:19.919Z,0.00
2018-04-06T00:20:19.906Z,0.00
2018-04-06T00:21:19.874Z,0.00
2018-04-06T00:22:19.854Z,0.00
2018-04-06T00:23:19.832Z,0.00
2018-04-06T00:24:19.812Z,0.00
2018-04-06T00:25:19.792Z,0.00
2018-04-06T00:26:19.770Z,0.00
2018-04-06T00:27:19.746Z,0.00
2018-04-06T00:28:19.726Z,0.00
2018-04-06T00:29:19.706Z,0.00
2018-04-06T00:30:19.687Z,0.00
2018-04-06T00:31:19.670Z,0.00
2018-04-06T00:32:19.648Z,0.00
2018-04-06T00:33:19.621Z,0.00
2018-04-06T00:34:19.602Z,0.00
2018-04-06T00:35:19.586Z,0.00
2018-04-06T00:36:19.559Z,0.00
2018-04-06T00:37:19.539Z,0.00
2018-04-06T00:38:19.517Z,0.00
2018-04-06T00:39:19.509Z,0.00
2018-04-06T00:40:19.473Z,0.00
2018-04-06T00:41:19.453Z,0.00
2018-04-06T00:42:19.442Z,0.00
2018-04-06T00:43:19.412Z,0.00
2018-04-06T00:44:19.391Z,0.00
2018-04-06T00:45:19.370Z,0.00
2018-04-06T00:46:19.350Z,0.00
2018-04-06T00:47:19.329Z,0.00
2018-04-06T00:48:19.306Z,0.00
2018-04-06T00:49:19.286Z,0.00
2018-04-06T00:50:19.263Z,0.00
2018-04-06T00:51:19.247Z,0.00
2018-04-06T00:52:19.221Z,0.00
2018-04-06T00:53:19.203Z,0.00
2018-04-06T00:54:19.183Z,0.00
2018-04-06T00:55:19.157Z,0.00
2018-04-06T00:56:19.141Z,0.00
2018-04-06T00:57:19.115Z,0.00
2018-04-06T00:58:19.094Z,0.00
2018-04-06T00:59:19.074Z,0.00
2018-04-06T01:00:19.053Z,0.00
2018-04-06T01:01:19.032Z,0.00
2018-04-06T01:02:19.010Z,0.00
2018-04-06T01:03:18.992Z,0.00
2018-04-06T01:04:18.967Z,0.00
2018-04-06T01:05:18.946Z,0.00
2018-04-06T01:06:18.925Z,0.00
2018-04-06T01:07:18.905Z,0.00
2018-04-06T01:08:18.886Z,0.00
2018-04-06T01:09:18.862Z,0.00
2018-04-06T01:10:18.841Z,0.00
2018-04-06T01:11:18.818Z,0.00
2018-04-06T01:12:18.799Z,0.00
2018-04-06T01:13:18.777Z,0.00
2018-04-06T01:14:18.763Z,0.00
2018-04-06T01:15:18.735Z,0.00
2018-04-06T01:16:18.720Z,0.00
2018-04-06T01:17:18.696Z,0.00
2018-04-06T01:18:18.672Z,0.00
2018-04-06T01:19:18.650Z,0.00
2018-04-06T01:20:18.631Z,0.00
2018-04-06T01:21:18.605Z,0.00
2018-04-06T01:22:18.586Z,0.00
2018-04-06T01:23:18.566Z,0.00
2018-04-06T01:24:18.542Z,0.00
2018-04-06T01:25:18.521Z,0.00
2018-04-06T01:26:18.501Z,0.00
2018-04-06T01:27:18.480Z,0.00
2018-04-06T01:28:18.456Z,0.00
2018-04-06T01:29:18.438Z,0.00
2018-04-06T01:30:18.416Z,0.00
2018-04-06T01:31:18.395Z,0.00
2018-04-06T01:32:18.379Z,0.00
2018-04-06T01:33:18.352Z,0.00
2018-04-06T01:34:18.331Z,0.00
2018-04-06T01:35:18.310Z,0.00
2018-04-06T01:36:18.289Z,0.00
2018-04-06T01:37:18.266Z,0.00
2018-04-06T01:38:18.248Z,0.00
2018-04-06T01:39:18.223Z,0.00
2018-04-06T01:40:18.202Z,0.00
2018-04-06T01:41:18.185Z,0.00
2018-04-06T01:42:18.163Z,0.00
2018-04-06T01:43:18.137Z,0.00
2018-04-06T01:44:18.123Z,0.00
2018-04-06T01:45:18.105Z,0.00
2018-04-06T01:46:18.079Z,0.00
2018-04-06T01:47:18.052Z,0.00
2018-04-06T01:48:18.033Z,0.00
2018-04-06T01:49:18.012Z,0.00
2018-04-06T01:50:17.990Z,0.00
2018-04-06T01:51:17.968Z,0.00
2018-04-06T01:52:17.948Z,0.00
2018-04-06T01:53:17.924Z,0.00
2018-04-06T01:54:17.905Z,0.00
2018-04-06T01:55:17.883Z,0.00
2018-04-06T01:56:17.863Z,0.00
2018-04-06T01:57:17.841Z,0.00
2018-04-06T01:58:17.823Z,0.00
2018-04-06T01:59:17.799Z,0.00
2018-04-06T02:00:17.780Z,0.00
2018-04-06T02:01:17.757Z,0.00
2018-04-06T02:02:17.737Z,0.00
2018-04-06T02:03:17.716Z,0.00
2018-04-06T02:04:17.698Z,0.00
2018-04-06T02:05:17.671Z,0.00
2018-04-06T02:06:17.652Z,0.00
2018-04-06T02:07:17.634Z,0.00
2018-04-06T02:08:17.604Z,0.00
2018-04-06T02:09:17.585Z,0.00
2018-04-06T02:10:17.563Z,0.00
2018-04-06T02:11:17.540Z,0.00
2018-04-06T02:12:17.521Z,0.00
2018-04-06T02:13:17.497Z,0.00
2018-04-06T02:14:17.480Z,0.00
2018-04-06T02:15:17.456Z,0.00
2018-04-06T02:16:17.434Z,0.00
2018-04-06T02:17:17.412Z,0.00
2018-04-06T02:18:17.396Z,0.00
2018-04-06T02:19:17.373Z,0.00
2018-04-06T02:20:17.348Z,0.00
2018-04-06T02:21:17.328Z,0.00
2018-04-06T02:22:17.304Z,0.00
2018-04-06T02:23:17.284Z,0.00
2018-04-06T02:24:17.264Z,0.00
2018-04-06T02:25:17.241Z,0.00
2018-04-06T02:26:17.222Z,0.00
2018-04-06T02:27:17.199Z,0.00
2018-04-06T02:28:17.177Z,0.00
2018-04-06T02:29:17.157Z,0.00
2018-04-06T02:30:17.141Z,0.00
2018-04-06T02:31:17.118Z,0.00
2018-04-06T02:32:17.092Z,0.00
2018-04-06T02:33:17.081Z,0.00
2018-04-06T02:34:17.048Z,0.00
2018-04-06T02:35:17.030Z,0.00
2018-04-06T02:36:17.011Z,0.00
2018-04-06T02:37:16.989Z,0.00
2018-04-06T02:38:16.964Z,0.00
2018-04-06T02:39:16.941Z,0.00
2018-04-06T02:40:16.924Z,0.00
2018-04-06T02:41:16.899Z,0.00
2018-04-06T02:42:16.877Z,0.00
2018-04-06T02:43:16.856Z,0.00
2018-04-06T02:44:16.842Z,0.00
2018-04-06T02:45:16.813Z,0.00
2018-04-06T02:46:16.796Z,0.00
2018-04-06T02:47:16.775Z,0.00
2018-04-06T02:48:16.749Z,0.00
2018-04-06T02:49:16.731Z,0.00
2018-04-06T02:50:16.707Z,0.00
2018-04-06T02:51:16.684Z,0.00
2018-04-06T02:52:16.664Z,0.00
2018-04-06T02:53:16.643Z,0.00
2018-04-06T02:54:16.621Z,0.00
2018-04-06T02:55:16.601Z,0.00
2018-04-06T02:56:16.578Z,0.00
2018-04-06T02:57:16.564Z,0.00
2018-04-06T02:58:16.540Z,0.00
2018-04-06T02:59:16.512Z,0.00
2018-04-06T03:00:16.494Z,0.00
2018-04-06T03:01:16.472Z,0.00
2018-04-06T03:02:16.456Z,0.00
2018-04-06T03:03:16.436Z,0.00
2018-04-06T03:04:16.405Z,0.00
2018-04-06T03:05:16.390Z,0.00
2018-04-06T03:06:16.364Z,0.00
2018-04-06T03:07:16.341Z,0.00
2018-04-06T03:08:16.320Z,0.00
2018-04-06T03:09:16.326Z,0.00
2018-04-06T03:10:16.277Z,0.00
2018-04-06T03:11:16.258Z,0.00
2018-04-06T03:12:16.232Z,0.00
2018-04-06T03:13:16.213Z,0.00
2018-04-06T03:14:16.191Z,0.00
2018-04-06T03:15:16.170Z,0.00
2018-04-06T03:16:16.148Z,0.00
2018-04-06T03:17:16.127Z,0.00
2018-04-06T03:18:16.105Z,0.00
2018-04-06T03:19:16.082Z,0.00
2018-04-06T03:20:16.070Z,0.00
2018-04-06T03:21:16.040Z,0.00
2018-04-06T03:22:16.024Z,0.00
2018-04-06T03:23:15.998Z,0.00
2018-04-06T03:24:15.975Z,0.00
2018-04-06T03:25:15.954Z,0.00
2018-04-06T03:26:15.933Z,0.00
2018-04-06T03:27:15.917Z,0.00
2018-04-06T03:28:15.890Z,0.00
2018-04-06T03:29:15.869Z,0.00
2018-04-06T03:30:15.847Z,0.00
2018-04-06T03:31:15.829Z,0.00
2018-04-06T03:32:15.808Z,0.00
2018-04-06T03:33:15.783Z,0.00
2018-04-06T03:34:15.761Z,0.00
2018-04-06T03:35:15.741Z,0.00
2018-04-06T03:36:15.719Z,0.00
2018-04-06T03:37:15.698Z,0.00
2018-04-06T03:38:15.676Z,0.00
2018-04-06T03:39:15.651Z,0.00
2018-04-06T03:40:15.636Z,0.00
2018-04-06T03:41:15.661Z,0.00
2018-04-06T03:42:15.591Z,0.00
2018-04-06T03:43:15.567Z,0.00
2018-04-06T03:44:15.548Z,0.00
2018-04-06T03:45:15.528Z,0.00
2018-04-06T03:46:15.504Z,0.00
2018-04-06T03:47:15.481Z,0.00
2018-04-06T03:48:15.461Z,0.00
2018-04-06T03:49:15.437Z,0.00
2018-04-06T03:50:15.419Z,0.00
2018-04-06T03:51:15.396Z,0.00
2018-04-06T03:52:15.376Z,0.00
2018-04-06T03:53:15.351Z,0.00
2018-04-06T03:54:15.329Z,0.00
2018-04-06T03:55:15.307Z,0.00
2018-04-06T03:56:15.287Z,0.00
2018-04-06T03:57:15.265Z,0.00
2018-04-06T03:58:15.248Z,0.00
2018-04-06T03:59:15.223Z,0.00
2018-04-06T04:00:15.202Z,0.00
2018-04-06T04:01:15.179Z,0.00
2018-04-06T04:02:15.157Z,0.00
2018-04-06T04:03:15.135Z,0.00
2018-04-06T04:04:15.112Z,0.00
2018-04-06T04:05:15.090Z,0.00
2018-04-06T04:06:15.072Z,0.00
2018-04-06T04:07:15.050Z,0.00
2018-04-06T04:08:15.029Z,0.00
2018-04-06T04:09:15.006Z,0.00
2018-04-06T04:10:14.982Z,0.00
2018-04-06T04:11:14.962Z,0.00
2018-04-06T04:12:14.941Z,0.00
2018-04-06T04:13:14.918Z,0.00
2018-04-06T04:14:14.897Z,0.00
2018-04-06T04:15:14.875Z,0.00
2018-04-06T04:16:14.854Z,0.00
2018-04-06T04:17:14.831Z,0.00
2018-04-06T04:18:14.811Z,0.00
2018-04-06T04:19:14.788Z,0.00
2018-04-06T04:20:14.767Z,5.63
2018-04-06T04:21:14.745Z,5.63
2018-04-06T04:22:14.725Z,5.63
2018-04-06T04:23:14.704Z,5.63
2018-04-06T04:24:14.679Z,5.63
2018-04-06T04:25:14.662Z,5.63
2018-04-06T04:26:14.638Z,11.25
2018-04-06T04:27:14.618Z,11.25
2018-04-06T04:28:14.594Z,11.25
2018-04-06T04:29:14.573Z,11.25
2018-04-06T04:30:14.551Z,11.25
2018-04-06T04:31:14.528Z,16.88
2018-04-06T04:32:14.510Z,16.88
2018-04-06T04:33:14.485Z,16.88
2018-04-06T04:34:14.464Z,16.88
2018-04-06T04:35:14.442Z,22.50
2018-04-06T04:36:14.419Z,22.50
2018-04-06T04:37:14.400Z,22.50
2018-04-06T04:38:14.383Z,28.13
2018-04-06T04:39:14.356Z,28.13
2018-04-06T04:40:14.335Z,28.13
2018-04-06T04:41:14.314Z,33.75
2018-04-06T04:42:14.290Z,33.75
2018-04-06T04:43:14.276Z,33.75
2018-04-06T04:44:14.250Z,39.38
2018-04-06T04:45:14.230Z,39.38
2018-04-06T04:46:14.206Z,39.38
2018-04-06T04:47:14.186Z,45.00
2018-04-06T04:48:14.170Z,45.00
2018-04-06T04:49:14.142Z,45.00
2018-04-06T04:50:14.119Z,50.63
2018-04-06T04:51:14.100Z,50.63
2018-04-06T04:52:14.080Z,50.63
2018-04-06T04:53:14.074Z,56.25
2018-04-06T04:54:14.035Z,56.25
2018-04-06T04:55:14.011Z,56.25
2018-04-06T04:56:13.989Z,61.88
2018-04-06T04:57:13.969Z,61.88
2018-04-06T04:58:13.945Z,67.50
2018-04-06T04:59:13.927Z,67.50
2018-04-06T05:00:13.902Z,67.50
2018-04-06T05:01:13.881Z,73.13
2018-04-06T05:02:13.861Z,73.13
2018-04-06T05:03:13.838Z,73.13
2018-04-06T05:04:13.816Z,78.75
2018-04-06T05:05:13.794Z,78.75
2018-04-06T05:06:13.781Z,78.75
2018-04-06T05:07:13.751Z,84.38
2018-04-06T05:08:13.729Z,84.38
2018-04-06T05:09:13.707Z,84.38
2018-04-06T05:10:13.690Z,90.00
2018-04-06T05:11:13.665Z,90.00
2018-04-06T05:12:13.645Z,90.00
2018-04-06T05:13:13.622Z,95.63
2018-04-06T05:14:13.603Z,95.63
2018-04-06T05:15:13.584Z,95.63
2018-04-06T05:16:13.565Z,101.25
2018-04-06T05:17:13.537Z,101.25
2018-04-06T05:18:13.517Z,101.25
2018-04-06T05:19:13.494Z,106.88
2018-04-06T05:20:13.474Z,106.88
2018-04-06T05:21:13.454Z,106.88
2018-04-06T05:22:13.437Z,112.50
2018-04-06T05:23:13.408Z,112.50
2018-04-06T05:24:13.385Z,112.50
2018-04-06T05:25:13.363Z,118.13
2018-04-06T05:26:13.351Z,118.13
2018-04-06T05:27:13.321Z,123.75
2018-04-06T05:28:13.302Z,123.75
2018-04-06T05:29:13.278Z,123.75
2018-04-06T05:30:13.259Z,129.38
2018-04-06T05:31:13.238Z,129.38
2018-04-06T05:32:13.216Z,129.38
2018-04-06T05:33:13.196Z,129.38
2018-04-06T05:34:13.176Z,135.00
2018-04-06T05:35:13.149Z,135.00
2018-04-06T05:36:13.130Z,135.00
2018-04-06T05:37:13.111Z,135.00
2018-04-06T05:38:13.096Z,140.63
2018-04-06T05:39:13.065Z,140.63
2018-04-06T05:40:13.046Z,146.25
2018-04-06T05:41:13.024Z,146.25
2018-04-06T05:42:13.003Z,146.25
2018-04-06T05:43:12.982Z,146.25
2018-04-06T05:44:12.960Z,151.88
2018-04-06T05:45:12.941Z,151.88
2018-04-06T05:46:12.918Z,157.50
2018-04-06T05:47:12.899Z,157.50
2018-04-06T05:48:12.873Z,157.50
2018-04-06T05:49:12.857Z,157.50
2018-04-06T05:50:12.835Z,163.13
2018-04-06T05:51:12.813Z,163.13
2018-04-06T05:52:12.787Z,168.75
2018-04-06T05:53:12.770Z,163.13
2018-04-06T05:54:12.751Z,168.75
2018-04-06T05:55:12.723Z,168.75
2018-04-06T05:56:12.706Z,168.75
2018-04-06T05:57:12.682Z,174.38
2018-04-06T05:58:12.664Z,174.38
2018-04-06T05:59:12.637Z,174.38
2018-04-06T06:00:12.618Z,180.00
2018-04-06T06:01:12.599Z,180.00
2018-04-06T06:02:12.575Z,185.63
2018-04-06T06:03:12.554Z,185.63
2018-04-06T06:04:12.534Z,185.63
2018-04-06T06:05:12.517Z,191.25
2018-04-06T06:06:12.490Z,191.25
2018-04-06T06:07:12.469Z,191.25
2018-04-06T06:08:12.450Z,196.88
2018-04-06T06:09:12.427Z,196.88
2018-04-06T06:10:12.406Z,196.88
2018-04-06T06:11:12.386Z,202.50
2018-04-06T06:12:12.365Z,202.50
2018-04-06T06:13:12.344Z,208.13
2018-04-06T06:14:12.326Z,202.50
2018-04-06T06:15:12.301Z,208.13
2018-04-06T06:16:12.280Z,208.13
2018-04-06T06:17:12.260Z,213.75
2018-04-06T06:18:12.239Z,213.75
2018-04-06T06:19:12.217Z,213.75
2018-04-06T06:20:12.197Z,213.75
2018-04-06T06:21:12.177Z,219.38
2018-04-06T06:22:12.161Z,219.38
2018-04-06T06:23:12.186Z,225.00
2018-04-06T06:24:12.114Z,225.00
2018-04-06T06:25:12.092Z,225.00
2018-04-06T06:26:12.071Z,225.00
2018-04-06T06:27:12.050Z,230.63
2018-04-06T06:28:12.030Z,230.63
2018-04-06T06:29:12.041Z,230.63
2018-04-06T06:30:11.987Z,230.63
2018-04-06T06:31:11.975Z,236.25
2018-04-06T06:32:11.950Z,236.25
2018-04-06T06:33:11.926Z,241.88
2018-04-06T06:34:11.908Z,241.88
2018-04-06T06:35:11.886Z,241.88
2018-04-06T06:36:11.864Z,241.88
2018-04-06T06:37:11.861Z,241.88
2018-04-06T06:38:11.824Z,241.88
2018-04-06T06:39:11.803Z,247.50
2018-04-06T06:40:11.782Z,241.88
2018-04-06T06:41:11.765Z,247.50
2018-04-06T06:42:11.741Z,247.50
2018-04-06T06:43:11.723Z,247.50
2018-04-06T06:44:11.700Z,247.50
2018-04-06T06:45:11.687Z,253.13
2018-04-06T06:46:11.661Z,258.75
2018-04-06T06:47:11.639Z,258.75
2018-04-06T06:48:11.665Z,270.00
2018-04-06T06:49:11.597Z,264.38
2018-04-06T06:50:11.581Z,264.38
2018-04-06T06:51:11.562Z,270.00
2018-04-06T06:52:11.544Z,270.00
2018-04-06T06:53:11.515Z,275.63
2018-04-06T06:54:11.497Z,275.63
2018-04-06T06:55:11.476Z,275.63
2018-04-06T06:56:11.456Z,281.25
2018-04-06T06:57:11.436Z,281.25
2018-04-06T06:58:11.413Z,286.88
2018-04-06T06:59:11.394Z,281.25
2018-04-06T07:00:11.373Z,292.50
2018-04-06T07:01:11.355Z,292.50
2018-04-06T07:02:11.335Z,298.13
2018-04-06T07:03:11.313Z,303.75
2018-04-06T07:04:11.295Z,303.75
2018-04-06T07:05:11.273Z,303.75
2018-04-06T07:06:11.256Z,309.38
2018-04-06T07:07:11.234Z,315.00
2018-04-06T07:08:11.213Z,315.00
2018-04-06T07:09:11.197Z,320.63
2018-04-06T07:10:11.178Z,320.63
2018-04-06T07:11:11.154Z,320.63
2018-04-06T07:12:11.138Z,320.63
2018-04-06T07:13:11.114Z,331.88
2018-04-06T07:14:11.095Z,343.13
2018-04-06T07:15:11.075Z,365.63
2018-04-06T07:16:11.054Z,388.13
2018-04-06T07:17:11.035Z,405.00
2018-04-06T07:18:11.014Z,427.50
2018-04-06T07:19:10.995Z,455.63
2018-04-06T07:20:10.979Z,466.88
2018-04-06T07:21:10.957Z,483.75
2018-04-06T07:22:10.938Z,680.63
2018-04-06T07:23:10.918Z,1248.75
2018-04-06T07:24:10.904Z,1963.13
2018-04-06T07:25:10.878Z,2480.63
2018-04-06T07:26:10.875Z,2773.13
2018-04-06T07:27:10.842Z,3105.00
2018-04-06T07:28:10.824Z,3228.75
2018-04-06T07:29:10.809Z,3082.50
2018-04-06T07:30:10.786Z,2908.13
2018-04-06T07:31:10.769Z,2902.50
2018-04-06T07:32:10.754Z,2981.25
2018-04-06T07:33:10.734Z,2829.38
2018-04-06T07:34:10.765Z,2638.13
2018-04-06T07:35:10.702Z,2604.38
2018-04-06T07:36:10.697Z,2728.13
2018-04-06T07:37:10.669Z,2958.75
2018-04-06T07:38:10.655Z,3133.13
2018-04-06T07:39:10.643Z,3391.88
2018-04-06T07:40:10.625Z,3645.00
2018-04-06T07:41:10.611Z,3763.13
2018-04-06T07:42:10.607Z,3774.38
2018-04-06T07:43:10.588Z,3746.25
2018-04-06T07:44:10.576Z,3813.75
2018-04-06T07:45:10.560Z,3515.63
2018-04-06T07:46:10.547Z,3110.63
2018-04-06T07:47:10.537Z,3408.75
2018-04-06T07:48:10.527Z,3600.00
2018-04-06T07:49:10.518Z,3493.13
2018-04-06T07:50:10.505Z,3301.88
2018-04-06T07:51:10.496Z,3206.25
2018-04-06T07:52:10.484Z,3290.63
2018-04-06T07:53:10.486Z,3228.75
2018-04-06T07:54:10.467Z,3003.75
2018-04-06T07:55:10.464Z,2891.25
2018-04-06T07:56:10.454Z,2812.50
2018-04-06T07:57:10.444Z,2750.63
2018-04-06T07:58:10.438Z,2733.75
2018-04-06T07:59:10.429Z,2767.50
2018-04-06T08:00:10.420Z,2868.75
2018-04-06T08:01:10.425Z,2941.88
2018-04-06T08:02:10.419Z,3037.50
2018-04-06T08:03:10.403Z,3065.63
2018-04-06T08:04:10.397Z,3088.13
2018-04-06T08:05:10.391Z,3037.50
2018-04-06T08:06:10.388Z,2936.25
2018-04-06T08:07:10.381Z,2981.25
2018-04-06T08:08:10.377Z,3076.88
2018-04-06T08:09:10.372Z,3183.75
2018-04-06T08:10:10.372Z,3358.13
2018-04-06T08:11:10.364Z,3375.00
2018-04-06T08:12:10.361Z,3352.50
2018-04-06T08:13:10.355Z,3436.88
2018-04-06T08:14:10.355Z,3549.38
2018-04-06T08:15:10.349Z,3538.13
2018-04-06T08:16:10.346Z,3498.75
2018-04-06T08:17:10.354Z,3481.88
2018-04-06T08:18:10.342Z,3425.63
2018-04-06T08:19:10.338Z,3504.38
2018-04-06T08:20:10.334Z,3583.13
2018-04-06T08:21:10.333Z,3521.25
2018-04-06T08:22:10.330Z,3560.63
2018-04-06T08:23:10.331Z,3521.25
2018-04-06T08:24:10.330Z,3397.50
2018-04-06T08:25:10.326Z,3369.38
2018-04-06T08:26:10.368Z,3442.50
2018-04-06T08:27:10.320Z,3453.75
2018-04-06T08:28:10.324Z,3363.75
2018-04-06T08:29:10.320Z,3285.00
2018-04-06T08:30:10.321Z,3279.38
2018-04-06T08:31:10.321Z,3386.25
2018-04-06T08:32:10.317Z,3436.88
2018-04-06T08:33:10.318Z,3498.75
2018-04-06T08:34:10.327Z,3493.13
2018-04-06T08:35:10.315Z,3481.88
2018-04-06T08:36:10.317Z,3498.75
2018-04-06T08:37:10.317Z,3583.13
2018-04-06T08:38:10.321Z,3796.88
2018-04-06T08:39:10.317Z,3819.38
2018-04-06T08:40:10.317Z,4005.00
2018-04-06T08:41:10.320Z,4190.63
2018-04-06T08:42:10.320Z,4280.63
2018-04-06T08:43:10.324Z,4471.88
2018-04-06T08:44:10.321Z,4708.13
2018-04-06T08:45:10.317Z,4831.88
2018-04-06T08:46:10.320Z,4955.63
2018-04-06T08:47:10.319Z,5068.13
2018-04-06T08:48:10.394Z,5051.25
2018-04-06T08:49:10.321Z,5130.00
2018-04-06T08:50:10.321Z,5253.75
2018-04-06T08:51:10.330Z,5416.88
2018-04-06T08:52:10.328Z,5416.88
2018-04-06T08:53:10.331Z,5591.25
2018-04-06T08:54:10.327Z,5754.38
2018-04-06T08:55:10.328Z,5928.75
2018-04-06T08:56:10.325Z,5940.00
2018-04-06T08:57:10.330Z,5985.00
2018-04-06T08:58:10.331Z,6035.63
2018-04-06T08:59:10.332Z,6024.38
2018-04-06T09:00:10.332Z,5940.00
2018-04-06T09:01:10.334Z,5709.38
2018-04-06T09:02:10.334Z,5771.25
2018-04-06T09:03:10.386Z,5653.13
2018-04-06T09:04:10.337Z,5411.25
2018-04-06T09:05:10.356Z,5461.88
2018-04-06T09:06:10.340Z,5349.38
2018-04-06T09:07:10.348Z,5186.25
2018-04-06T09:08:10.342Z,5073.75
2018-04-06T09:09:10.344Z,5023.13
2018-04-06T09:10:10.352Z,4938.75
2018-04-06T09:11:10.352Z,4753.13
2018-04-06T09:12:10.352Z,4657.50
2018-04-06T09:13:10.354Z,4640.63
2018-04-06T09:14:10.355Z,4657.50
2018-04-06T09:15:10.360Z,4696.88
2018-04-06T09:16:10.366Z,4758.75
2018-04-06T09:17:10.357Z,4770.00
2018-04-06T09:18:10.378Z,4792.50
2018-04-06T09:19:10.361Z,4910.63
2018-04-06T09:20:10.377Z,5135.63
2018-04-06T09:21:10.402Z,5416.88
2018-04-06T09:22:10.366Z,5703.75
2018-04-06T09:23:10.369Z,5731.88
2018-04-06T09:24:10.377Z,5956.88
2018-04-06T09:25:10.372Z,6103.13
2018-04-06T09:26:10.382Z,6181.88
2018-04-06T09:27:10.376Z,6232.50
2018-04-06T09:28:10.379Z,6311.25
2018-04-06T09:29:10.392Z,6288.75
2018-04-06T09:30:10.387Z,6193.13
2018-04-06T09:31:10.395Z,6069.38
2018-04-06T09:32:10.392Z,6153.75
2018-04-06T09:33:10.395Z,6288.75
2018-04-06T09:34:10.399Z,6255.00
2018-04-06T09:35:10.395Z,5917.50
2018-04-06T09:36:10.399Z,5568.75
2018-04-06T09:37:10.403Z,5501.25
2018-04-06T09:38:10.409Z,5416.88
2018-04-06T09:39:10.405Z,5332.50
2018-04-06T09:40:10.411Z,5236.88
2018-04-06T09:41:10.410Z,5203.13
2018-04-06T09:42:10.414Z,5180.63
2018-04-06T09:43:10.416Z,5298.75
2018-04-06T09:44:10.422Z,5343.75
2018-04-06T09:45:10.434Z,5478.75
2018-04-06T09:46:10.425Z,5698.13
2018-04-06T09:47:10.429Z,6120.00
2018-04-06T09:48:10.431Z,6395.63
2018-04-06T09:49:10.438Z,6525.00
2018-04-06T09:50:10.441Z,6508.13
2018-04-06T09:51:10.442Z,6648.75
2018-04-06T09:52:10.444Z,6806.25
2018-04-06T09:53:10.445Z,6946.88
2018-04-06T09:54:10.449Z,6975.00
2018-04-06T09:55:10.451Z,6924.38
2018-04-06T09:56:10.457Z,6766.88
2018-04-06T09:57:10.460Z,6474.38
2018-04-06T09:58:10.463Z,6215.63
2018-04-06T09:59:10.469Z,6131.25
2018-04-06T10:00:10.467Z,5906.25
2018-04-06T10:01:10.474Z,5866.88
2018-04-06T10:02:10.525Z,5709.38
2018-04-06T10:03:10.482Z,5602.50
2018-04-06T10:04:10.482Z,5647.50
2018-04-06T10:05:10.495Z,5703.75
2018-04-06T10:06:10.492Z,5889.38
2018-04-06T10:07:10.496Z,5973.75
2018-04-06T10:08:10.498Z,6198.75
2018-04-06T10:09:10.501Z,6547.50
2018-04-06T10:10:10.504Z,6733.13
2018-04-06T10:11:10.509Z,6862.50
2018-04-06T10:12:10.512Z,6924.38
2018-04-06T10:13:10.518Z,7008.75
2018-04-06T10:14:10.521Z,7076.25
2018-04-06T10:15:10.522Z,7053.75
2018-04-06T10:16:10.538Z,6963.75
2018-04-06T10:17:10.540Z,6811.88
2018-04-06T10:18:10.537Z,6738.75
2018-04-06T10:19:10.540Z,6390.00
2018-04-06T10:20:10.542Z,6294.38
2018-04-06T10:21:10.547Z,6249.38
2018-04-06T10:22:10.550Z,6013.13
2018-04-06T10:23:10.558Z,5940.00
2018-04-06T10:24:10.560Z,6091.88
2018-04-06T10:25:10.563Z,6165.00
2018-04-06T10:26:10.570Z,6288.75
2018-04-06T10:27:10.570Z,6457.50
2018-04-06T10:28:10.578Z,6530.63
2018-04-06T10:29:10.579Z,6581.25
2018-04-06T10:30:10.581Z,6930.00
2018-04-06T10:31:10.585Z,7081.88
2018-04-06T10:32:10.591Z,7200.00
2018-04-06T10:33:10.597Z,7278.75
2018-04-06T10:34:10.601Z,7284.38
2018-04-06T10:35:10.611Z,7076.25
2018-04-06T10:36:10.608Z,6924.38
2018-04-06T10:37:10.613Z,6496.88
2018-04-06T10:38:10.615Z,6277.50
2018-04-06T10:39:10.620Z,6350.63
2018-04-06T10:40:10.626Z,6350.63
2018-04-06T10:41:10.629Z,6390.00
2018-04-06T10:42:10.643Z,6491.25
2018-04-06T10:43:10.647Z,6525.00
2018-04-06T10:44:10.643Z,6772.50
2018-04-06T10:45:10.646Z,6828.75
2018-04-06T10:46:10.653Z,7048.13
2018-04-06T10:47:10.657Z,7205.63
2018-04-06T10:48:10.663Z,7245.00
2018-04-06T10:49:10.664Z,7250.63
2018-04-06T10:50:10.672Z,7200.00
2018-04-06T10:51:10.674Z,7149.38
2018-04-06T10:52:10.679Z,7081.88
2018-04-06T10:53:10.685Z,7042.50
2018-04-06T10:54:10.691Z,6834.38
2018-04-06T10:55:10.693Z,6620.63
2018-04-06T10:56:10.699Z,6564.38
2018-04-06T10:57:10.708Z,6592.50
2018-04-06T10:58:10.712Z,6727.50
2018-04-06T10:59:10.713Z,7020.00
2018-04-06T11:00:10.718Z,7076.25
2018-04-06T11:01:10.724Z,7233.75
2018-04-06T11:02:10.728Z,7312.50
2018-04-06T11:03:10.732Z,7453.13
2018-04-06T11:04:10.742Z,7453.13
2018-04-06T11:05:10.745Z,7306.88
2018-04-06T11:06:10.760Z,7104.38
2018-04-06T11:07:10.756Z,6907.50
2018-04-06T11:08:10.760Z,6811.88
2018-04-06T11:09:10.767Z,6811.88
2018-04-06T11:10:10.787Z,6789.38
2018-04-06T11:11:10.776Z,6823.13
2018-04-06T11:12:10.784Z,6823.13
2018-04-06T11:13:10.790Z,6930.00
2018-04-06T11:14:10.792Z,6991.88
2018-04-06T11:15:10.798Z,7076.25
2018-04-06T11:16:10.803Z,7171.88
2018-04-06T11:17:10.809Z,7177.50
2018-04-06T11:18:10.815Z,7194.38
2018-04-06T11:19:10.821Z,7138.13
2018-04-06T11:20:10.827Z,7110.00
2018-04-06T11:21:10.832Z,7110.00
2018-04-06T11:22:10.839Z,7036.88
2018-04-06T11:23:10.869Z,7042.50
2018-04-06T11:24:10.850Z,7053.75
2018-04-06T11:25:10.855Z,7076.25
2018-04-06T11:26:10.862Z,7104.38
2018-04-06T11:27:10.868Z,7076.25
2018-04-06T11:28:10.874Z,4809.38
2018-04-06T11:29:10.879Z,6975.00
2018-04-06T11:30:10.888Z,7065.00
2018-04-06T11:31:10.890Z,7059.38
2018-04-06T11:32:10.943Z,6232.50
2018-04-06T11:33:10.902Z,6176.25
2018-04-06T11:34:10.907Z,5546.25
2018-04-06T11:35:10.916Z,6018.75
2018-04-06T11:36:10.918Z,6384.38
2018-04-06T11:37:10.923Z,6755.63
2018-04-06T11:38:10.934Z,500.63
2018-04-06T11:39:10.944Z,6783.75
2018-04-06T11:40:10.943Z,6963.75
2018-04-06T11:41:10.947Z,7031.25
2018-04-06T11:42:10.958Z,7048.13
2018-04-06T11:43:10.956Z,7036.88
2018-04-06T11:44:10.994Z,6980.63
2018-04-06T11:45:10.971Z,6856.88
2018-04-06T11:46:10.976Z,6688.13
2018-04-06T11:47:10.982Z,6637.50
2018-04-06T11:48:10.987Z,6637.50
2018-04-06T11:49:10.997Z,6716.25
2018-04-06T11:50:11.009Z,6896.25
2018-04-06T11:51:11.006Z,6778.13
2018-04-06T11:52:11.011Z,6615.00
2018-04-06T11:53:11.017Z,6564.38
2018-04-06T11:54:11.072Z,6558.75
2018-04-06T11:55:11.031Z,6558.75
2018-04-06T11:56:11.032Z,6570.00
2018-04-06T11:57:11.036Z,6660.00
2018-04-06T11:58:11.043Z,6795.00
2018-04-06T11:59:11.050Z,6783.75
2018-04-06T12:00:11.054Z,6755.63
2018-04-06T12:01:11.060Z,6800.63
2018-04-06T12:02:11.067Z,6693.75
2018-04-06T12:03:11.070Z,6615.00
2018-04-06T12:04:11.075Z,6530.63
2018-04-06T12:05:11.082Z,6491.25
2018-04-06T12:06:11.090Z,6451.88
2018-04-06T12:07:11.094Z,6485.63
2018-04-06T12:08:11.104Z,6564.38
2018-04-06T12:09:11.106Z,6665.63
2018-04-06T12:10:11.108Z,6699.38
2018-04-06T12:11:11.115Z,6570.00
2018-04-06T12:12:11.120Z,6508.13
2018-04-06T12:13:11.132Z,6491.25
2018-04-06T12:14:11.131Z,6384.38
2018-04-06T12:15:11.136Z,6429.38
2018-04-06T12:16:11.140Z,6339.38
2018-04-06T12:17:11.149Z,6418.13
2018-04-06T12:18:11.151Z,6451.88
2018-04-06T12:19:11.156Z,6536.25
2018-04-06T12:20:11.162Z,6603.75
2018-04-06T12:21:11.166Z,6581.25
2018-04-06T12:22:11.171Z,6446.25
2018-04-06T12:23:11.179Z,6423.75
2018-04-06T12:24:11.190Z,6378.75
2018-04-06T12:25:11.187Z,6401.25
2018-04-06T12:26:11.193Z,6463.13
2018-04-06T12:27:11.203Z,6446.25
2018-04-06T12:28:11.207Z,6451.88
2018-04-06T12:29:57.032Z,0.00
2018-04-06T12:30:57.044Z,0.00
2018-04-06T12:31:57.049Z,0.00
2018-04-06T12:32:57.047Z,0.00
2018-04-06T12:33:57.053Z,0.00
2018-04-06T12:34:57.056Z,0.00
2018-04-06T12:35:57.064Z,0.00
2018-04-06T12:36:57.071Z,0.00
2018-04-06T12:37:57.072Z,0.00